Terminal Aerodrome Forecast
Issued by NWS

Home | Current Version | Previous Version | Text Only | Print | Product List | Glossary On
Versions: 1 2 3 4 5 6 7 8 9 10 11 12 13
000
FTUS41 KPHI 310203 AAA
TAFPNE
TAF AMD
KPNE 310203Z 3102/3124 15007KT P6SM SCT025
      TEMPO 3102/3104 BKN025
     FM310400 VRB03KT P6SM FEW030 SCT250
     FM311200 22005KT P6SM FEW060 SCT250
     FM311900 19007KT P6SM SCT050 BKN150=

USA.gov is the U.S. government's official web portal to all federal, state and local government web resources and services.